Time;durP1;ratioP1;P1;durP2;ratioP2;P2;SDS_P1;SDS_P2;PMS_P1;PMS_P2;Temp;Humidity;BMP_temperature;BMP_pressure;BME280_temperature;BME280_humidity;BME280_pressure;Samples;Min_cycle;Max_cycle;Signal;HPM_P1;HPM_P2
2021/08/28 00:00:45;;;;;;;1.70;1.03;;;8.60;99.90;8.50;96733.00;;;;5085533;28;20199;-67
2021/08/28 00:03:34;;;;;;;1.93;1.00;;;8.60;99.90;8.40;96723.00;;;;5085965;28;20218;-66
2021/08/28 00:06:24;;;;;;;0.93;0.73;;;8.60;99.90;8.10;96730.00;;;;5105712;28;20191;-67
2021/08/28 00:09:13;;;;;;;0.93;0.90;;;8.50;99.90;7.90;96726.00;;;;5107410;28;20203;-67
2021/08/28 00:12:02;;;;;;;2.30;0.90;;;8.50;99.90;7.80;96726.00;;;;5106961;28;20226;-66
2021/08/28 00:14:52;;;;;;;0.63;0.63;;;8.40;99.90;7.70;96718.00;;;;5107096;28;20198;-65
2021/08/28 00:17:41;;;;;;;1.13;1.00;;;8.30;99.90;7.50;96725.00;;;;5106120;28;20191;-66
2021/08/28 00:20:30;;;;;;;1.57;1.43;;;8.20;99.90;7.70;96734.00;;;;5107654;28;20198;-66
2021/08/28 00:23:21;;;;;;;1.13;0.80;;;8.20;99.90;7.60;96745.00;;;;5104999;28;20730;-66
2021/08/28 00:26:10;;;;;;;1.03;0.97;;;8.10;99.90;7.80;96733.00;;;;5101316;28;20199;-66
2021/08/28 00:28:59;;;;;;;0.80;0.80;;;8.10;99.90;8.00;96729.00;;;;5089594;28;20203;-66
2021/08/28 00:31:48;;;;;;;1.10;1.00;;;8.10;99.90;7.80;96724.00;;;;5085106;28;20227;-66
2021/08/28 00:34:37;;;;;;;1.50;0.93;;;8.10;99.90;7.60;96720.00;;;;5085155;28;20199;-67
2021/08/28 00:37:26;;;;;;;1.20;1.10;;;8.10;99.90;7.30;96728.00;;;;5086824;28;20206;-67
2021/08/28 00:40:16;;;;;;;1.20;1.10;;;8.00;99.90;7.30;96725.00;;;;5086531;28;20199;-66
2021/08/28 00:43:06;;;;;;;1.70;1.03;;;7.90;99.90;7.50;96717.00;;;;5085748;28;20203;-67
2021/08/28 00:45:55;;;;;;;2.40;0.90;;;7.80;99.90;7.70;96723.00;;;;5084897;28;20416;-66
2021/08/28 00:48:44;;;;;;;2.00;1.20;;;7.90;99.90;7.50;96721.00;;;;5085831;28;20199;-67
2021/08/28 00:51:33;;;;;;;1.13;1.00;;;7.90;99.90;7.30;96725.00;;;;5085051;28;20610;-66
2021/08/28 00:54:23;;;;;;;1.33;1.23;;;7.80;99.90;7.50;96731.00;;;;5085836;28;20686;-67
2021/08/28 00:57:14;;;;;;;1.10;1.00;;;7.80;99.90;7.70;96719.00;;;;5088422;28;20573;-67
2021/08/28 01:00:08;;;;;;;0.83;0.83;;;7.90;99.90;7.90;96729.00;;;;5092356;28;20195;-66
2021/08/28 01:03:00;;;;;;;1.50;0.90;;;7.90;99.90;8.00;96715.00;;;;5086942;28;20218;-67
2021/08/28 01:05:57;;;;;;;0.93;0.80;;;8.00;99.90;8.00;96712.00;;;;5086304;28;20203;-66
2021/08/28 01:08:51;;;;;;;1.37;1.27;;;8.10;99.90;7.60;96721.00;;;;5089522;28;20196;-66
2021/08/28 01:11:51;;;;;;;1.10;1.00;;;8.10;99.90;7.50;96720.00;;;;5106816;28;20638;-67
2021/08/28 01:14:46;;;;;;;1.50;1.40;;;8.00;99.90;7.30;96715.00;;;;5105059;28;20205;-66
2021/08/28 01:17:37;;;;;;;1.20;1.10;;;7.90;99.90;7.60;96709.00;;;;5103987;28;20709;-67
2021/08/28 01:20:39;;;;;;;1.87;1.70;;;7.90;99.90;7.70;96718.00;;;;5105841;28;20202;-67
2021/08/28 01:23:31;;;;;;;3.20;1.63;;;7.90;99.90;7.60;96722.00;;;;5104440;28;20578;-67
2021/08/28 01:26:24;;;;;;;1.97;1.30;;;7.90;99.90;7.50;96725.00;;;;5106711;28;20203;-67
2021/08/28 01:29:20;;;;;;;1.47;1.33;;;7.90;99.90;7.40;96718.00;;;;5106489;28;20199;-66
2021/08/28 01:32:09;;;;;;;1.40;1.30;;;7.90;99.90;7.50;96719.00;;;;5104978;28;20698;-67
2021/08/28 01:34:59;;;;;;;1.13;0.80;;;7.80;99.90;7.60;96722.00;;;;5107410;28;20210;-66
2021/08/28 01:37:49;;;;;;;1.63;1.53;;;7.80;99.90;7.50;96717.00;;;;5109149;28;20535;-66
2021/08/28 01:40:39;;;;;;;5.27;1.30;;;7.80;99.90;7.20;96717.00;;;;5109717;28;20508;-67
2021/08/28 01:43:30;;;;;;;0.90;0.90;;;7.80;99.90;7.10;96714.00;;;;5109523;28;20674;-67
2021/08/28 01:46:20;;;;;;;1.87;1.27;;;7.70;99.90;7.10;96722.00;;;;5109376;28;20207;-66
2021/08/28 01:49:11;;;;;;;1.40;1.27;;;7.60;99.90;7.10;96708.00;;;;5108190;28;20202;-67
2021/08/28 01:52:00;;;;;;;1.60;0.90;;;7.60;99.90;7.00;96717.00;;;;5109669;28;20230;-66
2021/08/28 01:54:50;;;;;;;1.07;0.90;;;7.50;99.90;7.00;96706.00;;;;5109759;28;20199;-67
2021/08/28 01:57:39;;;;;;;5.20;1.37;;;7.50;99.90;6.90;96709.00;;;;5108882;28;20225;-66
2021/08/28 02:00:28;;;;;;;4.50;1.33;;;7.40;99.90;6.80;96719.00;;;;5101527;28;20221;-66
2021/08/28 02:03:19;;;;;;;1.63;1.13;;;7.40;99.90;6.90;96717.00;;;;5088650;28;20199;-66
2021/08/28 02:06:13;;;;;;;1.53;1.30;;;7.40;99.90;6.80;96713.00;;;;5108507;28;20194;-67
2021/08/28 02:09:07;;;;;;;1.67;1.57;;;7.30;99.90;6.80;96725.00;;;;5087743;28;20689;-66
2021/08/28 02:12:02;;;;;;;2.30;1.63;;;7.30;99.90;6.90;96713.00;;;;5088557;28;20230;-66
2021/08/28 02:14:59;;;;;;;2.50;1.17;;;7.30;99.90;7.00;96718.00;;;;5087734;28;20203;-67
2021/08/28 02:17:53;;;;;;;1.53;1.33;;;7.30;99.90;6.60;96702.00;;;;5087210;28;20211;-66
2021/08/28 02:20:50;;;;;;;0.97;0.83;;;7.30;99.90;6.80;96703.00;;;;5089262;28;20552;-66
2021/08/28 02:23:47;;;;;;;1.40;1.30;;;7.20;99.90;6.80;96707.00;;;;5086962;28;20191;-67
2021/08/28 02:26:41;;;;;;;2.17;1.27;;;7.20;99.90;6.90;96701.00;;;;5089929;28;20195;-66
2021/08/28 02:29:35;;;;;;;0.93;0.80;;;7.30;99.90;7.10;96696.00;;;;5089498;28;20375;-67
2021/08/28 02:32:25;;;;;;;3.30;1.30;;;7.30;99.90;6.80;96694.00;;;;5088054;28;20227;-66
2021/08/28 02:35:14;;;;;;;1.73;1.57;;;7.30;99.90;6.70;96691.00;;;;5087826;28;20286;-67
2021/08/28 02:38:05;;;;;;;3.00;1.17;;;7.20;99.90;6.70;96692.00;;;;5088046;28;20206;-66
2021/08/28 02:40:57;;;;;;;1.70;1.20;;;7.20;99.90;6.90;96690.00;;;;5089375;28;20210;-67
2021/08/28 02:43:48;;;;;;;1.00;0.90;;;7.20;99.90;6.50;96685.00;;;;5088901;28;20582;-66
2021/08/28 02:46:38;;;;;;;1.30;1.20;;;7.20;99.90;6.70;96680.00;;;;5086578;28;20199;-66
2021/08/28 02:49:27;;;;;;;5.60;1.30;;;7.10;99.90;6.80;96676.00;;;;5088803;28;20203;-66
2021/08/28 02:52:17;;;;;;;1.20;1.10;;;7.10;99.90;6.90;96680.00;;;;5088382;28;20614;-67
2021/08/28 02:55:11;;;;;;;2.60;1.17;;;7.10;99.90;6.70;96667.00;;;;5087939;28;20209;-67
2021/08/28 02:58:02;;;;;;;3.10;1.63;;;7.10;99.90;6.50;96664.00;;;;5085731;28;20199;-67
2021/08/28 03:00:52;;;;;;;1.60;1.23;;;7.10;99.90;6.50;96656.00;;;;5086785;28;20703;-67
2021/08/28 03:03:43;;;;;;;1.50;1.40;;;7.00;99.90;6.60;96663.00;;;;5086716;28;20222;-67
2021/08/28 03:06:33;;;;;;;1.30;0.90;;;7.00;99.90;6.40;96659.00;;;;5087715;28;20252;-66
2021/08/28 03:09:22;;;;;;;2.10;1.10;;;7.00;99.90;6.10;96659.00;;;;5097056;28;20566;-66
2021/08/28 03:12:12;;;;;;;1.37;1.10;;;6.90;99.90;6.20;96657.00;;;;5107893;28;20226;-66
2021/08/28 03:15:01;;;;;;;1.50;1.40;;;6.80;99.90;6.30;96662.00;;;;5108678;28;20199;-66
2021/08/28 03:17:51;;;;;;;1.40;1.27;;;6.80;99.90;6.40;96657.00;;;;5107349;28;20198;-67
2021/08/28 03:20:42;;;;;;;2.23;1.03;;;7.30;99.90;6.30;96668.00;;;;5108528;28;20202;-66
2021/08/28 03:23:32;;;;;;;1.60;1.50;;;6.80;99.90;6.60;96667.00;;;;5108283;28;20594;-67
2021/08/28 03:26:24;;;;;;;1.63;1.50;;;6.80;99.90;6.40;96668.00;;;;5107209;28;20470;-66
2021/08/28 03:29:16;;;;;;;1.00;1.00;;;6.80;99.90;6.40;96654.00;;;;5106084;28;20201;-67
2021/08/28 03:32:06;;;;;;;1.30;1.20;;;7.40;99.90;6.50;96662.00;;;;5095527;28;20223;-66
2021/08/28 03:34:56;;;;;;;1.87;1.47;;;6.80;99.90;6.70;96660.00;;;;5091874;28;20722;-66
2021/08/28 03:37:45;;;;;;;1.33;1.07;;;6.80;99.90;6.90;96655.00;;;;5087513;28;20229;-67
2021/08/28 03:40:34;;;;;;;1.67;1.07;;;7.00;99.90;6.90;96662.00;;;;5086506;28;20250;-66
2021/08/28 03:43:23;;;;;;;1.40;1.17;;;7.00;99.90;6.60;96650.00;;;;5085515;28;20721;-66
2021/08/28 03:46:14;;;;;;;3.83;1.33;;;7.00;99.90;6.90;96658.00;;;;5085801;28;20207;-67
2021/08/28 03:49:03;;;;;;;1.50;1.20;;;7.10;99.90;7.20;96654.00;;;;5086730;28;20249;-66
2021/08/28 03:51:52;;;;;;;1.80;1.43;;;7.10;99.90;7.20;96648.00;;;;5086573;28;20227;-67
2021/08/28 03:54:41;;;;;;;2.07;1.50;;;7.20;99.90;6.80;96638.00;;;;5085411;28;20612;-66
2021/08/28 03:57:32;;;;;;;6.60;4.17;;;7.20;99.90;6.60;96643.00;;;;5086438;28;20213;-66
2021/08/28 04:00:20;;;;;;;2.70;1.70;;;7.10;99.90;6.20;96652.00;;;;5086141;28;20201;-65
2021/08/28 04:03:11;;;;;;;2.37;2.00;;;7.00;99.90;6.20;96652.00;;;;5084504;28;20267;-67
2021/08/28 04:06:00;;;;;;;2.40;1.80;;;6.80;99.90;6.30;96646.00;;;;5087513;28;20191;-67
2021/08/28 04:08:49;;;;;;;7.30;1.70;;;6.80;99.90;6.10;96647.00;;;;5091350;28;20410;-67
2021/08/28 04:11:37;;;;;;;1.73;1.30;;;6.80;99.90;6.10;96639.00;;;;5106743;28;20605;-66
2021/08/28 04:14:26;;;;;;;3.07;1.30;;;6.70;99.90;6.40;96651.00;;;;5106419;28;20203;-66
2021/08/28 04:17:15;;;;;;;2.27;1.60;;;6.70;99.90;6.60;96652.00;;;;5107415;28;20222;-66
2021/08/28 04:20:07;;;;;;;2.53;1.50;;;6.80;99.90;6.50;96653.00;;;;5105352;28;20217;-66
2021/08/28 04:22:56;;;;;;;2.10;1.67;;;6.80;99.90;6.70;96641.00;;;;5105967;28;20458;-65
2021/08/28 04:25:45;;;;;;;3.10;1.23;;;6.90;99.90;6.90;96646.00;;;;5108151;28;20554;-66
2021/08/28 04:28:34;;;;;;;4.83;1.23;;;7.00;99.90;6.90;96630.00;;;;5105926;28;20669;-66
2021/08/28 04:31:23;;;;;;;1.80;1.57;;;7.10;99.90;7.00;96642.00;;;;5094616;28;20221;-66
2021/08/28 04:34:12;;;;;;;1.87;1.70;;;7.20;99.90;7.30;96652.00;;;;5085145;28;20730;-66
2021/08/28 04:37:03;;;;;;;1.13;1.07;;;7.30;99.90;7.30;96644.00;;;;5085374;28;20258;-66
2021/08/28 04:39:52;;;;;;;1.77;1.17;;;7.50;99.90;6.90;96648.00;;;;5086007;28;20203;-66
2021/08/28 04:42:40;;;;;;;1.87;1.30;;;7.50;99.90;6.80;96650.00;;;;5104901;28;20238;-65
2021/08/28 04:45:29;;;;;;;1.43;1.20;;;7.40;99.90;6.90;96647.00;;;;5100458;28;20222;-67
2021/08/28 04:48:18;;;;;;;1.13;1.13;;;7.40;99.90;6.80;96662.00;;;;5085356;28;20195;-65
2021/08/28 04:51:08;;;;;;;1.37;1.27;;;7.30;99.90;6.80;96659.00;;;;5084765;28;20571;-65
2021/08/28 04:53:58;;;;;;;1.00;1.00;;;7.30;99.90;6.60;96648.00;;;;5084557;28;20626;-66
2021/08/28 04:56:47;;;;;;;1.70;1.60;;;7.30;99.90;6.70;96653.00;;;;5079043;28;20587;-67
2021/08/28 04:59:36;;;;;;;1.10;1.00;;;7.20;99.90;6.80;96658.00;;;;5085120;28;20328;-67
2021/08/28 05:02:25;;;;;;;1.63;1.37;;;7.20;99.90;7.00;96666.00;;;;5087196;28;20785;-66
2021/08/28 05:05:14;;;;;;;2.20;1.30;;;7.30;99.90;7.20;96670.00;;;;5084447;28;20206;-67
2021/08/28 05:08:04;;;;;;;1.20;1.10;;;7.40;99.90;7.30;96687.00;;;;5085878;28;20197;-66
2021/08/28 05:10:54;;;;;;;1.50;1.33;;;7.50;99.90;7.30;96682.00;;;;5075531;28;20573;-66
2021/08/28 05:13:43;;;;;;;3.40;1.57;;;7.50;99.90;7.50;96688.00;;;;5088567;28;20278;-66
2021/08/28 05:16:32;;;;;;;1.57;1.37;;;7.60;99.90;7.50;96687.00;;;;5084988;28;20210;-67
2021/08/28 05:19:21;;;;;;;1.70;1.10;;;7.70;99.90;7.70;96689.00;;;;5093417;28;20671;-66
2021/08/28 05:22:10;;;;;;;1.63;1.53;;;7.80;99.90;8.00;96673.00;;;;5089533;28;20222;-66
2021/08/28 05:24:59;;;;;;;2.10;1.77;;;7.90;99.90;8.10;96668.00;;;;5089040;28;20612;-67
2021/08/28 05:27:49;;;;;;;3.70;1.47;;;8.00;99.90;8.00;96669.00;;;;5087674;28;20290;-67
2021/08/28 05:30:38;;;;;;;6.03;1.90;;;8.20;99.90;8.00;96667.00;;;;5090431;28;20199;-66
2021/08/28 05:33:27;;;;;;;1.23;1.10;;;8.20;99.90;8.30;96672.00;;;;5088497;28;20203;-66
2021/08/28 05:36:16;;;;;;;2.23;1.77;;;8.30;99.90;8.30;96670.00;;;;5089656;28;20206;-67
2021/08/28 05:39:05;;;;;;;2.17;1.67;;;8.50;99.90;8.30;96665.00;;;;5089793;28;20566;-67
2021/08/28 05:41:53;;;;;;;1.67;1.57;;;8.60;99.90;8.40;96677.00;;;;5089916;28;20686;-67
2021/08/28 05:44:45;;;;;;;2.03;1.63;;;8.60;99.90;8.40;96678.00;;;;5088938;28;20227;-68
2021/08/28 05:47:34;;;;;;;5.50;1.27;;;8.70;99.90;8.60;96686.00;;;;5109457;28;20194;-66
2021/08/28 05:50:23;;;;;;;1.70;1.60;;;8.70;99.90;8.60;96680.00;;;;5103341;28;20200;-67
2021/08/28 05:53:14;;;;;;;1.87;1.50;;;8.80;99.90;8.70;96678.00;;;;5108408;28;20202;-67
2021/08/28 05:56:04;;;;;;;1.63;1.40;;;8.80;99.90;8.90;96673.00;;;;5108041;28;20669;-66
2021/08/28 05:58:53;;;;;;;1.77;1.67;;;9.00;99.90;9.00;96681.00;;;;5108940;28;20209;-66
2021/08/28 06:01:43;;;;;;;1.97;1.40;;;9.10;99.90;9.10;96665.00;;;;5097728;28;20219;-67
2021/08/28 06:04:32;;;;;;;1.50;1.40;;;9.10;99.90;9.30;96665.00;;;;5102516;28;20688;-68
2021/08/28 06:07:21;;;;;;;1.30;1.20;;;9.30;99.90;9.60;96659.00;;;;5109501;28;20198;-68
2021/08/28 06:10:10;;;;;;;1.70;1.60;;;9.50;99.90;9.80;96667.00;;;;5107615;28;20217;-67
2021/08/28 06:12:59;;;;;;;2.00;1.60;;;9.70;99.90;10.00;96666.00;;;;5093111;28;20226;-68
2021/08/28 06:15:48;;;;;;;1.90;1.43;;;9.90;99.90;10.30;96664.00;;;;5086754;28;20294;-68
2021/08/28 06:18:38;;;;;;;2.20;2.00;;;9.10;99.90;10.40;96663.00;;;;5102714;28;20207;-67
2021/08/28 06:21:51;;;;;;;3.20;2.07;;;10.20;99.90;10.30;96659.00;;;;5083737;28;20680;-66
2021/08/28 06:24:43;;;;;;;2.47;1.93;;;10.30;99.90;10.50;96664.00;;;;5092822;28;20223;-68
2021/08/28 06:27:32;;;;;;;3.97;2.13;;;10.40;99.90;10.60;96660.00;;;;5087208;28;20196;-67
2021/08/28 06:30:22;;;;;;;2.80;1.73;;;10.60;99.90;10.80;96653.00;;;;5089865;28;20200;-67
2021/08/28 06:33:11;;;;;;;4.03;1.87;;;10.70;99.90;11.00;96656.00;;;;5089160;28;20539;-67
2021/08/28 06:36:04;;;;;;;4.63;1.73;;;10.80;99.90;11.20;96651.00;;;;5087392;28;20201;-67
2021/08/28 06:38:53;;;;;;;2.20;2.00;;;10.90;99.90;11.70;96649.00;;;;5088223;28;20199;-68
2021/08/28 06:41:42;;;;;;;4.27;2.63;;;11.20;99.90;11.70;96648.00;;;;5088549;28;20223;-68
2021/08/28 06:44:31;;;;;;;2.60;1.80;;;11.40;99.90;11.80;96640.00;;;;5087878;28;20589;-67
2021/08/28 06:47:20;;;;;;;2.03;1.53;;;11.50;99.90;11.90;96646.00;;;;5109121;27;20217;-67
2021/08/28 06:50:09;;;;;;;3.07;1.70;;;11.70;99.90;12.10;96642.00;;;;5121420;27;20204;-67
2021/08/28 06:53:00;;;;;;;3.33;3.03;;;11.80;99.90;12.10;96645.00;;;;5126950;27;20561;-68
2021/08/28 06:55:49;;;;;;;2.40;1.77;;;11.90;99.90;12.30;96646.00;;;;5128975;27;20194;-67
2021/08/28 06:58:38;;;;;;;3.47;2.20;;;12.00;99.90;12.70;96652.00;;;;5120678;27;20206;-67
2021/08/28 07:01:27;;;;;;;3.63;2.20;;;12.10;99.90;13.00;96649.00;;;;5105682;28;20232;-68
2021/08/28 07:04:16;;;;;;;7.17;2.43;;;12.30;99.90;12.90;96639.00;;;;5106713;28;20242;-67
2021/08/28 07:07:05;;;;;;;3.93;2.37;;;12.50;99.90;13.10;96644.00;;;;5104575;27;20671;-67
2021/08/28 07:09:55;;;;;;;5.17;2.53;;;12.70;99.90;13.30;96628.00;;;;5107406;28;20199;-68
2021/08/28 07:12:45;;;;;;;4.90;2.07;;;12.90;99.90;13.80;96636.00;;;;5106412;27;20709;-68
2021/08/28 07:15:36;;;;;;;3.27;2.30;;;13.10;99.90;13.90;96628.00;;;;5099390;28;20194;-67
2021/08/28 07:18:25;;;;;;;3.57;2.03;;;13.30;99.90;13.90;96625.00;;;;5109720;28;20249;-67
2021/08/28 07:21:17;;;;;;;2.83;2.00;;;13.50;99.90;14.10;96630.00;;;;5107180;28;20214;-67
2021/08/28 07:24:07;;;;;;;5.37;2.23;;;13.70;99.90;14.40;96620.00;;;;5107231;28;20226;-68
2021/08/28 07:26:58;;;;;;;2.03;1.73;;;14.00;99.90;14.90;96629.00;;;;5093067;28;20203;-67
2021/08/28 07:29:47;;;;;;;6.47;2.70;;;14.20;99.90;14.90;96626.00;;;;5090787;28;20199;-67
2021/08/28 07:32:36;;;;;;;4.17;2.03;;;14.30;99.90;14.80;96635.00;;;;5086988;28;20230;-68
2021/08/28 07:35:26;;;;;;;4.50;1.77;;;14.50;99.90;15.10;96633.00;;;;5087656;28;20240;-68
2021/08/28 07:38:15;;;;;;;3.43;2.40;;;14.60;99.90;15.20;96621.00;;;;5085255;28;20206;-68
2021/08/28 07:41:04;;;;;;;2.97;1.93;;;14.70;99.90;15.40;96612.00;;;;5084848;28;20236;-68
2021/08/28 07:43:55;;;;;;;3.63;2.07;;;14.80;99.90;15.40;96619.00;;;;5087307;28;20229;-68
2021/08/28 07:46:45;;;;;;;3.20;1.70;;;15.00;99.90;15.70;96631.00;;;;5088472;28;20214;-68
2021/08/28 07:49:34;;;;;;;3.43;2.07;;;15.10;99.90;15.70;96627.00;;;;5087136;28;20195;-68
2021/08/28 07:52:23;;;;;;;5.77;3.03;;;15.20;99.90;16.00;96625.00;;;;5089878;28;20223;-68
2021/08/28 07:55:13;;;;;;;2.43;1.40;;;15.40;99.90;16.20;96634.00;;;;5084634;28;20567;-68
2021/08/28 07:58:05;;;;;;;1.37;1.07;;;15.60;99.90;16.40;96628.00;;;;5086861;28;20199;-68
2021/08/28 08:00:55;;;;;;;2.77;1.53;;;15.70;99.90;16.60;96622.00;;;;5085468;28;20203;-67
2021/08/28 08:03:44;;;;;;;2.87;1.60;;;15.90;99.90;17.10;96631.00;;;;5086521;28;20203;-67
2021/08/28 08:06:33;;;;;;;3.07;1.73;;;16.20;99.90;17.20;96633.00;;;;5083233;28;20654;-67
2021/08/28 08:09:22;;;;;;;3.60;1.70;;;16.40;99.90;17.30;96624.00;;;;5082082;28;20500;-68
2021/08/28 08:12:11;;;;;;;1.87;1.57;;;16.60;99.90;17.50;96624.00;;;;5087331;28;20227;-68
2021/08/28 08:15:00;;;;;;;2.83;1.67;;;16.70;99.90;17.80;96631.00;;;;5086001;28;20195;-68
2021/08/28 08:17:50;;;;;;;1.70;1.37;;;16.90;99.90;17.90;96628.00;;;;5082007;28;20191;-68
2021/08/28 08:20:40;;;;;;;2.47;1.33;;;17.20;99.90;18.00;96632.00;;;;5084886;28;20214;-68
2021/08/28 08:23:29;;;;;;;2.00;1.23;;;17.30;99.90;18.10;96634.00;;;;5095376;28;20195;-68
2021/08/28 08:26:20;;;;;;;2.00;1.30;;;17.40;99.90;18.30;96635.00;;;;5075736;28;20228;-68
2021/08/28 08:29:09;;;;;;;1.47;1.23;;;17.60;99.90;18.40;96632.00;;;;5072821;28;20194;-68
2021/08/28 08:31:58;;;;;;;1.57;1.10;;;17.70;99.90;18.30;96635.00;;;;5073534;28;20219;-68
2021/08/28 08:34:48;;;;;;;3.47;1.13;;;17.80;99.90;18.50;96640.00;;;;5086896;28;20199;-68
2021/08/28 08:37:38;;;;;;;2.77;1.20;;;17.90;99.90;18.50;96636.00;;;;5081437;28;20213;-68
2021/08/28 08:40:27;;;;;;;1.50;0.93;;;17.90;99.90;18.20;96629.00;;;;5083612;28;20203;-69
2021/08/28 08:43:17;;;;;;;2.17;1.43;;;17.90;99.90;18.50;96640.00;;;;5083921;28;20678;-68
2021/08/28 08:46:07;;;;;;;2.13;1.33;;;18.00;99.90;18.60;96627.00;;;;5087407;28;20223;-69
2021/08/28 08:48:57;;;;;;;1.80;1.30;;;18.00;99.90;18.60;96626.00;;;;5085612;28;20199;-68
2021/08/28 08:51:48;;;;;;;3.93;1.83;;;18.10;99.90;18.90;96618.00;;;;5083071;28;20223;-68
2021/08/28 08:54:37;;;;;;;3.80;1.77;;;18.20;99.90;19.10;96613.00;;;;5105053;28;20214;-69
2021/08/28 08:57:27;;;;;;;1.47;1.00;;;18.30;99.90;19.10;96611.00;;;;5104662;28;20589;-68
2021/08/28 09:00:17;;;;;;;2.03;1.70;;;18.50;99.90;19.50;96603.00;;;;5107057;28;20695;-69
2021/08/28 09:03:06;;;;;;;2.27;1.57;;;18.70;99.90;19.80;96603.00;;;;5105807;28;20194;-68
2021/08/28 09:05:56;;;;;;;4.73;1.70;;;18.90;99.90;20.00;96594.00;;;;5106881;28;20491;-68
2021/08/28 09:08:46;;;;;;;3.63;1.40;;;19.10;99.90;20.50;96608.00;;;;5105851;28;20688;-69
2021/08/28 09:11:35;;;;;;;1.90;1.37;;;19.40;99.90;20.30;96598.00;;;;5097465;28;20690;-68
2021/08/28 09:14:24;;;;;;;6.07;3.20;;;19.50;99.90;20.10;96599.00;;;;5086620;28;20670;-69
2021/08/28 09:17:18;;;;;;;2.70;1.20;;;19.60;99.90;20.10;96598.00;;;;5084951;28;20191;-68
2021/08/28 09:20:20;;;;;;;1.97;1.20;;;19.60;99.90;20.50;96598.00;;;;5087230;28;20589;-69
2021/08/28 09:23:11;;;;;;;1.33;1.23;;;19.70;99.90;21.10;96600.00;;;;5085668;28;20205;-69
2021/08/28 09:26:02;;;;;;;1.43;1.00;;;20.00;99.90;20.80;96612.00;;;;5086366;28;20222;-69
2021/08/28 09:28:55;;;;;;;1.30;1.20;;;20.10;99.90;20.50;96610.00;;;;5084279;28;20208;-69
2021/08/28 09:31:47;;;;;;;1.87;1.60;;;20.10;99.90;20.50;96610.00;;;;5081695;28;20230;-70
2021/08/28 09:34:35;;;;;;;1.10;1.00;;;20.10;99.90;20.30;96606.00;;;;5081236;28;20576;-70
2021/08/28 09:37:30;;;;;;;2.73;1.20;;;20.00;99.90;20.20;96615.00;;;;5078469;28;20204;-70
2021/08/28 09:40:31;;;;;;;1.97;1.50;;;20.00;99.90;19.80;96619.00;;;;5082442;28;20685;-69
2021/08/28 09:43:25;;;;;;;2.57;1.63;;;19.80;99.10;20.00;96617.00;;;;5084792;28;20213;-69
2021/08/28 09:46:29;;;;;;;2.37;1.57;;;19.70;99.70;19.90;96619.00;;;;5086591;28;20224;-70
2021/08/28 09:49:25;;;;;;;2.27;1.50;;;19.60;99.90;19.70;96632.00;;;;5084501;28;20188;-69
2021/08/28 09:52:16;;;;;;;3.87;1.47;;;19.50;99.90;19.70;96623.00;;;;5084728;28;20216;-70
2021/08/28 09:55:08;;;;;;;5.57;2.23;;;19.40;99.90;19.60;96627.00;;;;5086200;28;20689;-69
2021/08/28 09:57:57;;;;;;;7.43;2.17;;;19.30;99.90;19.50;96618.00;;;;5088868;28;20202;-69
2021/08/28 10:00:47;;;;;;;3.70;2.00;;;19.30;99.90;19.40;96621.00;;;;5087947;28;20249;-69
2021/08/28 10:03:36;;;;;;;4.27;1.57;;;19.20;99.90;19.40;96624.00;;;;5088226;28;20284;-70
2021/08/28 10:06:25;;;;;;;3.13;1.73;;;19.10;99.90;19.40;96626.00;;;;5086101;28;20219;-71
2021/08/28 10:09:15;;;;;;;3.87;1.70;;;19.10;99.90;19.10;96629.00;;;;5096793;28;20206;-69
2021/08/28 10:12:05;;;;;;;2.83;1.70;;;19.00;99.90;19.00;96626.00;;;;5107703;28;20230;-69
2021/08/28 10:14:55;;;;;;;2.73;1.50;;;18.90;99.90;19.10;96633.00;;;;5108685;28;20240;-69
2021/08/28 10:17:46;;;;;;;3.00;1.63;;;18.80;99.90;19.00;96627.00;;;;5107722;28;20198;-69
2021/08/28 10:20:35;;;;;;;2.47;1.50;;;18.80;99.90;18.90;96634.00;;;;5107965;28;20195;-69
2021/08/28 10:23:27;;;;;;;3.20;1.93;;;18.70;99.90;18.90;96630.00;;;;5108431;28;20209;-69
2021/08/28 10:26:17;;;;;;;4.10;1.93;;;18.60;99.90;18.70;96624.00;;;;5107962;28;20206;-69
2021/08/28 10:29:06;;;;;;;4.67;1.70;;;18.50;99.90;18.90;96623.00;;;;5100686;28;20218;-69
2021/08/28 10:31:55;;;;;;;2.83;1.90;;;18.50;99.90;18.80;96614.00;;;;5087961;28;20215;-69
2021/08/28 10:34:46;;;;;;;3.40;1.50;;;18.50;99.90;18.70;96617.00;;;;5087961;28;20218;-69
2021/08/28 10:37:35;;;;;;;2.13;1.40;;;18.50;99.90;18.90;96621.00;;;;5088334;28;20242;-69
2021/08/28 10:40:26;;;;;;;10.13;2.27;;;18.50;99.90;18.90;96621.00;;;;5089742;28;20199;-69
2021/08/28 10:43:15;;;;;;;3.70;1.67;;;18.50;99.90;19.20;96613.00;;;;5088526;28;20666;-69
2021/08/28 10:46:19;;;;;;;5.53;1.67;;;18.60;99.90;19.30;96598.00;;;;5088622;28;20276;-70
2021/08/28 10:49:11;;;;;;;2.70;1.83;;;18.60;99.90;19.30;96609.00;;;;5087095;28;20199;-69
2021/08/28 10:52:03;;;;;;;2.40;1.73;;;18.80;99.90;19.60;96608.00;;;;5087632;28;20221;-69
2021/08/28 10:54:56;;;;;;;2.57;1.80;;;18.90;99.90;19.50;96613.00;;;;5087454;28;20210;-69
2021/08/28 10:57:45;;;;;;;3.50;1.87;;;19.00;99.90;19.70;96601.00;;;;5086794;28;20192;-71
2021/08/28 11:00:41;;;;;;;2.53;1.60;;;19.20;99.90;19.70;96603.00;;;;5088739;28;20206;-70
2021/08/28 11:03:31;;;;;;;3.90;1.47;;;19.30;99.90;19.90;96600.00;;;;5088115;28;20199;-73
2021/08/28 11:06:28;;;;;;;2.10;1.63;;;19.30;99.90;20.00;96599.00;;;;5089205;28;20215;-71
2021/08/28 11:09:18;;;;;;;2.53;1.67;;;19.40;99.90;20.40;96606.00;;;;5097336;28;20195;-70
2021/08/28 11:12:20;;;;;;;3.07;2.03;;;19.60;99.90;20.70;96598.00;;;;5107345;28;20238;-72
2021/08/28 11:15:51;;;;;;;2.03;1.90;;;19.80;99.90;21.40;96590.00;;;;5108777;28;20202;-71
2021/08/28 11:18:47;;;;;;;2.03;1.83;;;20.10;99.90;21.90;96590.00;;;;5106395;28;20235;-70
2021/08/28 11:21:43;;;;;;;2.20;1.70;;;20.50;99.90;22.20;96593.00;;;;5107514;28;20214;-71
2021/08/28 11:24:33;;;;;;;2.10;1.67;;;20.90;99.90;22.20;96600.00;;;;5106196;28;20224;-72
2021/08/28 11:27:42;;;;;;;2.87;1.53;;;21.20;99.90;22.50;96592.00;;;;5082786;28;20223;-71
2021/08/28 11:30:55;;;;;;;2.17;1.57;;;21.50;99.90;22.90;96574.00;;;;5085110;28;20203;-73
2021/08/28 11:33:44;;;;;;;1.63;1.23;;;21.90;98.40;23.40;96580.00;;;;5086228;28;20199;-72
2021/08/28 11:36:33;;;;;;;1.10;1.00;;;22.20;97.30;23.00;96596.00;;;;5086003;28;20222;-72
2021/08/28 11:39:24;;;;;;;2.77;1.67;;;22.40;95.60;22.70;96594.00;;;;5085878;28;20958;-72
2021/08/28 11:42:15;;;;;;;2.53;1.83;;;22.40;93.80;22.70;96588.00;;;;5086447;28;20211;-72
2021/08/28 11:45:05;;;;;;;1.97;1.20;;;22.20;94.70;22.30;96592.00;;;;5085588;28;20216;-72
2021/08/28 11:47:54;;;;;;;1.40;1.23;;;22.20;94.00;20.40;96571.00;;;;5102879;27;20213;-73
2021/08/28 11:50:44;;;;;;;2.67;1.73;;;21.80;91.20;21.60;96573.00;;;;5106451;28;20206;-72
2021/08/28 11:53:34;;;;;;;1.50;1.10;;;21.60;92.70;21.90;96579.00;;;;5106235;28;20520;-74
2021/08/28 11:56:24;;;;;;;6.10;2.10;;;21.60;93.70;21.00;96570.00;;;;5106634;28;20938;-73
2021/08/28 11:59:17;;;;;;;3.70;1.20;;;21.30;91.40;21.90;96574.00;;;;5106407;28;20187;-72
2021/08/28 12:02:07;;;;;;;1.93;1.10;;;21.30;92.70;21.90;96576.00;;;;5106095;28;20218;-73
2021/08/28 12:04:56;;;;;;;2.47;1.40;;;21.30;92.80;22.00;96579.00;;;;5107057;28;20202;-72
2021/08/28 12:07:53;;;;;;;5.20;1.47;;;21.40;93.40;21.80;96591.00;;;;5100812;28;20217;-73
2021/08/28 12:10:44;;;;;;;2.57;1.87;;;21.40;93.50;21.60;96592.00;;;;5095604;28;20203;-73
2021/08/28 12:13:47;;;;;;;1.10;1.00;;;21.40;94.00;21.50;96593.00;;;;5105123;28;20198;-73
2021/08/28 12:16:40;;;;;;;4.90;1.80;;;21.30;93.30;21.60;96587.00;;;;5105500;28;20270;-73
2021/08/28 12:19:31;;;;;;;1.20;0.97;;;21.20;93.40;21.40;96584.00;;;;5106073;28;20212;-73
2021/08/28 12:22:20;;;;;;;2.10;1.73;;;21.10;93.80;20.90;96577.00;;;;5103487;28;20218;-73
2021/08/28 12:25:14;;;;;;;1.97;1.30;;;20.90;93.40;20.20;96572.00;;;;5106104;28;20203;-71
2021/08/28 12:28:03;;;;;;;2.50;2.03;;;20.70;92.60;20.50;96560.00;;;;5105335;28;20197;-70
2021/08/28 12:30:55;;;;;;;2.90;1.70;;;20.50;93.20;20.80;96568.00;;;;5106528;28;20214;-72
2021/08/28 12:33:46;;;;;;;1.57;1.40;;;20.50;94.60;21.10;96554.00;;;;5106008;28;20199;-72
2021/08/28 12:36:35;;;;;;;1.53;0.97;;;20.50;95.30;21.20;96556.00;;;;5105847;28;20223;-72
2021/08/28 12:39:24;;;;;;;2.60;1.63;;;20.50;95.80;21.10;96554.00;;;;5106528;28;20198;-72
2021/08/28 12:42:15;;;;;;;1.33;1.07;;;20.60;94.80;21.10;96556.00;;;;5100383;28;20625;-72
2021/08/28 12:45:07;;;;;;;1.37;1.27;;;20.60;94.30;21.60;96544.00;;;;5103062;28;20194;-72
2021/08/28 12:48:05;;;;;;;1.53;1.33;;;20.70;92.80;20.90;96556.00;;;;5105429;28;20784;-72